Time,TemperatureF,DewpointF,PressureIn,WindDirection,WindDirectionDegrees,WindSpeedMPH,WindSpeedGustMPH,Humidity,HourlyPrecipIn,Conditions,Clouds,dailyrainin,SoftwareType,DateUTC
2013-05-31 00:02:00,58.0,38.0,30.12,North,360,6.0,10.0,48,0.00,,,-99.99,,2013-05-31 07:02:00,
2013-05-31 00:11:00,56.0,38.0,30.12,North,360,2.0,4.0,50,0.00,,,-99.99,,2013-05-31 07:11:00,
2013-05-31 00:21:00,56.0,38.0,30.12,North,360,2.0,4.0,50,0.00,,,-99.99,,2013-05-31 07:21:00,
2013-05-31 00:31:00,56.0,38.0,30.12,North,360,2.0,4.0,50,0.00,,,-99.99,,2013-05-31 07:31:00,
2013-05-31 00:41:00,56.0,38.0,30.12,North,360,2.0,4.0,50,0.00,,,-99.99,,2013-05-31 07:41:00,
2013-05-31 00:52:00,51.0,35.0,30.12,North,360,3.0,6.0,54,0.00,,,-99.99,,2013-05-31 07:52:00,
2013-05-31 01:02:00,53.0,36.0,30.12,North,360,3.0,5.0,53,0.00,,,-99.99,,2013-05-31 08:02:00,
2013-05-31 01:11:00,53.0,36.0,30.12,North,360,3.0,5.0,53,0.00,,,-99.99,,2013-05-31 08:11:00,
2013-05-31 01:21:00,53.0,36.0,30.12,North,360,3.0,5.0,53,0.00,,,-99.99,,2013-05-31 08:21:00,
2013-05-31 01:31:00,52.0,37.0,30.12,North,360,5.0,7.0,57,0.00,,,-99.99,,2013-05-31 08:31:00,
2013-05-31 01:41:00,52.0,37.0,30.12,North,360,5.0,7.0,57,0.00,,,-99.99,,2013-05-31 08:41:00,
2013-05-31 01:52:00,52.0,37.0,30.12,North,360,5.0,7.0,57,0.00,,,-99.99,,2013-05-31 08:52:00,
2013-05-31 02:01:00,54.0,40.0,30.12,North,360,5.0,7.0,59,0.00,,,-99.99,,2013-05-31 09:01:00,
2013-05-31 02:11:00,54.0,40.0,30.12,North,360,5.0,7.0,59,0.00,,,-99.99,,2013-05-31 09:11:00,
2013-05-31 02:21:00,54.0,40.0,30.12,North,360,5.0,7.0,59,0.00,,,-99.99,,2013-05-31 09:21:00,
2013-05-31 02:32:00,54.0,40.0,30.12,North,360,4.0,6.0,59,0.00,,,-99.99,,2013-05-31 09:32:00,
2013-05-31 02:42:00,54.0,40.0,30.12,North,360,4.0,6.0,59,0.00,,,-99.99,,2013-05-31 09:42:00,
2013-05-31 02:53:00,54.0,40.0,30.12,North,360,4.0,6.0,59,0.00,,,-99.99,,2013-05-31 09:53:00,
2013-05-31 03:02:00,54.0,40.0,30.12,North,360,4.0,6.0,59,0.00,,,-99.99,,2013-05-31 10:02:00,
2013-05-31 03:12:00,44.0,36.0,30.12,North,360,5.0,7.0,72,0.00,,,-99.99,,2013-05-31 10:12:00,
2013-05-31 03:22:00,44.0,36.0,30.12,North,360,5.0,7.0,72,0.00,,,-99.99,,2013-05-31 10:22:00,
2013-05-31 03:33:00,51.0,41.0,30.11,North,360,5.0,8.0,68,0.00,,,-99.99,,2013-05-31 10:33:00,
2013-05-31 03:42:00,51.0,41.0,30.11,North,360,5.0,8.0,68,0.00,,,-99.99,,2013-05-31 10:42:00,
2013-05-31 03:52:00,48.0,38.0,30.11,North,360,6.0,7.0,69,0.00,,,-99.99,,2013-05-31 10:52:00,
2013-05-31 04:01:00,42.0,35.0,30.12,North,360,4.0,7.0,75,0.00,,,-99.99,,2013-05-31 11:01:00,
2013-05-31 04:22:00,42.0,37.0,30.12,North,360,0.0,2.0,81,0.00,,,-99.99,,2013-05-31 11:22:00,
2013-05-31 04:32:00,42.0,36.0,30.12,North,360,1.0,2.0,80,0.00,,,-99.99,,2013-05-31 11:32:00,
2013-05-31 04:41:00,42.0,36.0,30.12,North,360,1.0,2.0,80,0.00,,,-99.99,,2013-05-31 11:41:00,
2013-05-31 04:52:00,42.0,36.0,30.12,North,360,2.0,5.0,80,0.00,,,-99.99,,2013-05-31 11:52:00,
2013-05-31 05:01:00,40.0,36.0,30.12,North,360,1.0,3.0,85,0.00,,,-99.99,,2013-05-31 12:01:00,
2013-05-31 05:31:00,39.0,34.0,30.13,North,360,1.0,4.0,82,0.00,,,-99.99,,2013-05-31 12:31:00,
2013-05-31 05:52:00,39.0,35.0,30.13,North,360,1.0,4.0,85,0.00,,,-99.99,,2013-05-31 12:52:00,
2013-05-31 06:01:00,44.0,39.0,30.14,North,360,1.0,3.0,82,0.00,,,-99.99,,2013-05-31 13:01:00,
2013-05-31 06:11:00,44.0,39.0,30.14,North,360,1.0,3.0,82,0.00,,,-99.99,,2013-05-31 13:11:00,
2013-05-31 06:21:00,46.0,38.0,30.15,North,360,0.0,2.0,74,0.00,,,-99.99,,2013-05-31 13:21:00,
2013-05-31 06:32:00,46.0,38.0,30.15,North,360,0.0,2.0,74,0.00,,,-99.99,,2013-05-31 13:32:00,
2013-05-31 06:42:00,46.0,38.0,30.15,North,360,0.0,2.0,74,0.00,,,-99.99,,2013-05-31 13:42:00,
2013-05-31 06:52:00,52.0,41.0,30.15,North,360,0.0,2.0,66,0.00,,,-99.99,,2013-05-31 13:52:00,
2013-05-31 07:02:00,52.0,41.0,30.15,North,360,0.0,2.0,66,0.00,,,-99.99,,2013-05-31 14:02:00,
2013-05-31 07:11:00,52.0,41.0,30.15,North,360,0.0,2.0,66,0.00,,,-99.99,,2013-05-31 14:11:00,
2013-05-31 07:21:00,63.0,46.0,30.16,North,360,0.0,2.0,54,0.00,,,-99.99,,2013-05-31 14:21:00,
2013-05-31 07:32:00,64.0,45.0,30.16,North,360,1.0,3.0,50,0.00,,,-99.99,,2013-05-31 14:32:00,
2013-05-31 07:52:00,68.0,48.0,30.16,North,360,0.0,3.0,48,0.00,,,-99.99,,2013-05-31 14:52:00,
2013-05-31 08:01:00,72.0,49.0,30.17,North,360,0.0,2.0,44,0.00,,,-99.99,,2013-05-31 15:01:00,
2013-05-31 08:32:00,68.0,47.0,30.17,North,360,4.0,8.0,47,0.00,,,-99.99,,2013-05-31 15:32:00,
2013-05-31 08:42:00,68.0,47.0,30.17,North,360,4.0,8.0,47,0.00,,,-99.99,,2013-05-31 15:42:00,
2013-05-31 08:53:00,69.0,47.0,30.17,North,360,5.0,9.0,45,0.00,,,-99.99,,2013-05-31 15:53:00,
2013-05-31 09:03:00,71.0,46.0,30.17,North,360,3.0,11.0,41,0.00,,,-99.99,,2013-05-31 16:03:00,
2013-05-31 09:12:00,71.0,45.0,30.17,North,360,5.0,10.0,39,0.00,,,-99.99,,2013-05-31 16:12:00,
2013-05-31 09:22:00,71.0,45.0,30.17,North,360,5.0,10.0,39,0.00,,,-99.99,,2013-05-31 16:22:00,
2013-05-31 09:33:00,72.0,44.0,30.17,North,360,4.0,9.0,37,0.00,,,-99.99,,2013-05-31 16:33:00,
2013-05-31 09:41:00,72.0,44.0,30.17,North,360,4.0,9.0,37,0.00,,,-99.99,,2013-05-31 16:41:00,
2013-05-31 09:52:00,72.0,44.0,30.17,North,360,5.0,16.0,36,0.00,,,-99.99,,2013-05-31 16:52:00,
2013-05-31 10:02:00,74.0,44.0,30.16,North,360,4.0,12.0,34,0.00,,,-99.99,,2013-05-31 17:02:00,
2013-05-31 10:12:00,74.0,44.0,30.16,North,360,4.0,12.0,34,0.00,,,-99.99,,2013-05-31 17:12:00,
2013-05-31 10:22:00,73.0,41.0,30.17,North,360,9.0,17.0,31,0.00,,,-99.99,,2013-05-31 17:22:00,
2013-05-31 10:31:00,73.0,41.0,30.17,North,360,9.0,17.0,31,0.00,,,-99.99,,2013-05-31 17:31:00,
2013-05-31 10:40:00,75.0,41.0,30.17,North,360,7.0,14.0,30,0.00,,,-99.99,,2013-05-31 17:40:00,
2013-05-31 10:42:00,73.0,41.0,30.17,North,360,9.0,17.0,31,0.00,,,-99.99,,2013-05-31 17:42:00,
2013-05-31 10:52:00,74.0,43.0,30.17,North,360,8.0,14.0,33,0.00,,,-99.99,,2013-05-31 17:52:00,
2013-05-31 11:01:00,75.0,41.0,30.17,North,360,7.0,14.0,30,0.00,,,-99.99,,2013-05-31 18:01:00,
2013-05-31 11:11:00,75.0,41.0,30.17,North,360,7.0,14.0,30,0.00,,,-99.99,,2013-05-31 18:11:00,
2013-05-31 11:21:00,75.0,41.0,30.17,North,360,7.0,14.0,30,0.00,,,-99.99,,2013-05-31 18:21:00,
2013-05-31 11:31:00,75.0,41.0,30.17,North,360,7.0,14.0,30,0.00,,,-99.99,,2013-05-31 18:31:00,
2013-05-31 12:02:00,75.0,41.0,30.17,North,360,10.0,15.0,29,0.00,,,-99.99,,2013-05-31 19:02:00,
2013-05-31 12:11:00,75.0,41.0,30.17,North,360,10.0,15.0,29,0.00,,,-99.99,,2013-05-31 19:11:00,
2013-05-31 12:22:00,78.0,41.0,30.17,North,360,5.0,12.0,27,0.00,,,-99.99,,2013-05-31 19:22:00,
2013-05-31 12:31:00,76.0,41.0,30.16,North,360,8.0,20.0,28,0.00,,,-99.99,,2013-05-31 19:31:00,
2013-05-31 12:42:00,76.0,41.0,30.16,North,360,8.0,20.0,28,0.00,,,-99.99,,2013-05-31 19:42:00,
2013-05-31 12:52:00,76.0,41.0,30.16,North,360,8.0,20.0,28,0.00,,,-99.99,,2013-05-31 19:52:00,
2013-05-31 13:01:00,77.0,40.0,30.16,North,360,9.0,19.0,27,0.00,,,-99.99,,2013-05-31 20:01:00,
2013-05-31 13:11:00,77.0,40.0,30.16,North,360,9.0,19.0,27,0.00,,,-99.99,,2013-05-31 20:11:00,
2013-05-31 13:22:00,77.0,40.0,30.16,North,360,9.0,19.0,27,0.00,,,-99.99,,2013-05-31 20:22:00,
2013-05-31 13:31:00,79.0,39.0,30.15,North,360,4.0,12.0,24,0.00,,,-99.99,,2013-05-31 20:31:00,
2013-05-31 13:41:00,79.0,39.0,30.15,North,360,4.0,12.0,24,0.00,,,-99.99,,2013-05-31 20:41:00,
2013-05-31 13:52:00,79.0,40.0,30.16,North,360,7.0,15.0,25,0.00,,,-99.99,,2013-05-31 20:52:00,
2013-05-31 14:01:00,80.0,40.0,30.15,North,360,6.0,16.0,24,0.00,,,-99.99,,2013-05-31 21:01:00,
2013-05-31 14:11:00,80.0,40.0,30.15,North,360,6.0,16.0,24,0.00,,,-99.99,,2013-05-31 21:11:00,
2013-05-31 14:22:00,80.0,41.0,30.15,North,360,5.0,14.0,25,0.00,,,-99.99,,2013-05-31 21:22:00,
2013-05-31 14:32:00,80.0,41.0,30.15,North,360,9.0,18.0,25,0.00,,,-99.99,,2013-05-31 21:32:00,
2013-05-31 14:42:00,82.0,43.0,30.14,North,360,4.0,11.0,25,0.00,,,-99.99,,2013-05-31 21:42:00,
2013-05-31 14:53:00,82.0,43.0,30.14,North,360,4.0,11.0,25,0.00,,,-99.99,,2013-05-31 21:53:00,
2013-05-31 15:02:00,82.0,42.0,30.14,North,360,4.0,11.0,24,0.00,,,-99.99,,2013-05-31 22:02:00,
2013-05-31 15:12:00,82.0,42.0,30.14,North,360,4.0,11.0,24,0.00,,,-99.99,,2013-05-31 22:12:00,
2013-05-31 15:22:00,80.0,42.0,30.13,North,360,11.0,20.0,26,0.00,,,-99.99,,2013-05-31 22:22:00,
2013-05-31 15:33:00,82.0,43.0,30.12,North,360,10.0,23.0,25,0.00,,,-99.99,,2013-05-31 22:33:00,
2013-05-31 15:41:00,81.0,44.0,30.13,North,360,9.0,23.0,27,0.00,,,-99.99,,2013-05-31 22:41:00,
2013-05-31 16:02:00,81.0,42.0,30.12,North,360,9.0,20.0,25,0.00,,,-99.99,,2013-05-31 23:02:00,
2013-05-31 16:12:00,81.0,42.0,30.12,North,360,9.0,20.0,25,0.00,,,-99.99,,2013-05-31 23:12:00,
2013-05-31 16:21:00,80.0,42.0,30.11,North,360,8.0,15.0,26,0.00,,,-99.99,,2013-05-31 23:21:00,
2013-05-31 16:32:00,82.0,44.0,30.12,North,360,6.0,13.0,26,0.00,,,-99.99,,2013-05-31 23:32:00,
2013-05-31 17:01:00,82.0,44.0,30.11,North,360,12.0,21.0,26,0.00,,,-99.99,,2013-06-01 00:01:00,
2013-05-31 17:11:00,82.0,43.0,30.11,North,360,6.0,14.0,25,0.00,,,-99.99,,2013-06-01 00:11:00,
2013-05-31 17:22:00,82.0,43.0,30.11,North,360,6.0,14.0,25,0.00,,,-99.99,,2013-06-01 00:22:00,
2013-05-31 17:31:00,82.0,43.0,30.11,North,360,6.0,14.0,25,0.00,,,-99.99,,2013-06-01 00:31:00,
2013-05-31 17:42:00,81.0,42.0,30.11,North,360,7.0,19.0,25,0.00,,,-99.99,,2013-06-01 00:42:00,
2013-05-31 18:11:00,81.0,40.0,30.11,North,360,6.0,11.0,23,0.00,,,-99.99,,2013-06-01 01:11:00,
2013-05-31 18:21:00,81.0,40.0,30.11,North,360,6.0,11.0,23,0.00,,,-99.99,,2013-06-01 01:21:00,
2013-05-31 18:31:00,80.0,39.0,30.11,North,360,9.0,15.0,23,0.00,,,-99.99,,2013-06-01 01:31:00,
2013-05-31 18:42:00,80.0,38.0,30.11,North,360,9.0,15.0,22,0.00,,,-99.99,,2013-06-01 01:42:00,
2013-05-31 18:52:00,80.0,38.0,30.11,North,360,9.0,15.0,22,0.00,,,-99.99,,2013-06-01 01:52:00,
2013-05-31 19:01:00,79.0,36.0,30.11,North,360,10.0,15.0,21,0.00,,,-99.99,,2013-06-01 02:01:00,
2013-05-31 19:11:00,78.0,35.0,30.12,North,360,7.0,13.0,21,0.00,,,-99.99,,2013-06-01 02:11:00,
2013-05-31 19:21:00,78.0,35.0,30.12,North,360,7.0,13.0,21,0.00,,,-99.99,,2013-06-01 02:21:00,
2013-05-31 19:31:00,78.0,35.0,30.12,North,360,7.0,13.0,21,0.00,,,-99.99,,2013-06-01 02:31:00,
2013-05-31 19:41:00,74.0,33.0,30.13,North,360,4.0,8.0,22,0.00,,,-99.99,,2013-06-01 02:41:00,
2013-05-31 19:52:00,74.0,33.0,30.13,North,360,4.0,8.0,22,0.00,,,-99.99,,2013-06-01 02:52:00,
2013-05-31 20:01:00,74.0,33.0,30.13,North,360,4.0,8.0,22,0.00,,,-99.99,,2013-06-01 03:01:00,
2013-05-31 20:11:00,74.0,33.0,30.13,North,360,4.0,8.0,22,0.00,,,-99.99,,2013-06-01 03:11:00,
2013-05-31 20:21:00,74.0,33.0,30.13,North,360,4.0,8.0,22,0.00,,,-99.99,,2013-06-01 03:21:00,
2013-05-31 20:33:00,67.0,27.0,30.14,North,360,1.0,3.0,22,0.00,,,-99.99,,2013-06-01 03:33:00,
2013-05-31 20:43:00,66.0,27.0,30.14,North,360,2.0,4.0,23,0.00,,,-99.99,,2013-06-01 03:43:00,
2013-05-31 20:53:00,66.0,27.0,30.14,North,360,2.0,4.0,23,0.00,,,-99.99,,2013-06-01 03:53:00,
2013-05-31 21:02:00,63.0,27.0,30.15,North,360,2.0,4.0,25,0.00,,,-99.99,,2013-06-01 04:02:00,
2013-05-31 21:12:00,63.0,27.0,30.15,North,360,2.0,4.0,25,0.00,,,-99.99,,2013-06-01 04:12:00,
2013-05-31 21:22:00,63.0,27.0,30.15,North,360,2.0,4.0,25,0.00,,,-99.99,,2013-06-01 04:22:00,
2013-05-31 21:33:00,62.0,26.0,30.16,North,360,1.0,2.0,25,0.00,,,-99.99,,2013-06-01 04:33:00,
2013-05-31 21:42:00,61.0,25.0,30.16,North,360,1.0,4.0,25,0.00,,,-99.99,,2013-06-01 04:42:00,
2013-05-31 21:53:00,61.0,25.0,30.16,North,360,1.0,4.0,25,0.00,,,-99.99,,2013-06-01 04:53:00,
2013-05-31 22:02:00,58.0,24.0,30.16,North,360,2.0,3.0,27,0.00,,,-99.99,,2013-06-01 05:02:00,
2013-05-31 22:12:00,58.0,24.0,30.16,North,360,2.0,3.0,27,0.00,,,-99.99,,2013-06-01 05:12:00,
2013-05-31 22:22:00,56.0,26.0,30.17,North,360,2.0,5.0,31,0.00,,,-99.99,,2013-06-01 05:22:00,
2013-05-31 22:32:00,57.0,22.0,30.17,North,360,0.0,2.0,26,0.00,,,-99.99,,2013-06-01 05:32:00,
2013-05-31 22:42:00,55.0,24.0,30.17,North,360,1.0,2.0,30,0.00,,,-99.99,,2013-06-01 05:42:00,
2013-05-31 22:52:00,55.0,24.0,30.17,North,360,1.0,2.0,30,0.00,,,-99.99,,2013-06-01 05:52:00,
2013-05-31 23:01:00,53.0,22.0,30.17,North,360,1.0,3.0,30,0.00,,,-99.99,,2013-06-01 06:01:00,
2013-05-31 23:12:00,52.0,23.0,30.17,North,360,2.0,4.0,32,0.00,,,-99.99,,2013-06-01 06:12:00,
2013-05-31 23:22:00,52.0,23.0,30.17,North,360,2.0,4.0,32,0.00,,,-99.99,,2013-06-01 06:22:00,
2013-05-31 23:32:00,52.0,23.0,30.17,North,360,2.0,4.0,32,0.00,,,-99.99,,2013-06-01 06:32:00,
2013-05-31 23:41:00,52.0,21.0,30.17,North,360,2.0,6.0,29,0.00,,,-99.99,,2013-06-01 06:41:00,
2013-05-31 23:51:00,52.0,21.0,30.17,North,360,2.0,6.0,29,0.00,,,-99.99,,2013-06-01 06:51:00,